Time;durP1;ratioP1;P1;durP2;ratioP2;P2;SDS_P1;SDS_P2;PMS_P1;PMS_P2;Temp;Humidity;BMP_temperature;BMP_pressure;BME280_temperature;BME280_humidity;BME280_pressure;Samples;Min_cycle;Max_cycle;Signal;HPM_P1;HPM_P2
2021/03/30 00:00:21;;;;;;;27.03;24.20;;;;;22.10;101964.00;;;;2078650;28;20214;-46
2021/03/30 00:01:22;;;;;;;26.10;23.10;;;;;22.10;101949.00;;;;2075656;28;20210;-46
2021/03/30 00:02:22;;;;;;;24.10;21.57;;;;;22.10;101957.00;;;;2073870;28;20347;-45
2021/03/30 00:03:22;;;;;;;23.67;20.77;;;;;22.10;101953.00;;;;2078584;28;20347;-44
2021/03/30 00:04:23;;;;;;;22.90;20.50;;;;;22.10;101950.00;;;;2073928;28;20215;-44
2021/03/30 00:05:23;;;;;;;21.73;19.47;;;;;22.10;101828.00;;;;2073078;28;20226;-45
2021/03/30 00:06:24;;;;;;;23.03;20.60;;;;;22.10;101954.00;;;;2072908;28;20552;-44
2021/03/30 00:07:24;;;;;;;23.50;20.53;;;;;22.10;101956.00;;;;2073082;28;20215;-43
2021/03/30 00:08:24;;;;;;;21.93;19.73;;;;;22.10;101952.00;;;;2072554;28;20233;-43
2021/03/30 00:09:25;;;;;;;20.67;18.50;;;;;22.10;101959.00;;;;2073785;28;20226;-43
2021/03/30 00:10:30;;;;;;;22.17;19.17;;;;;22.10;101959.00;;;;2070588;28;20250;-44
2021/03/30 00:11:30;;;;;;;22.75;20.25;;;;;22.10;101957.00;;;;2078672;28;20282;-45
2021/03/30 00:12:31;;;;;;;21.97;18.17;;;;;22.10;101951.00;;;;2077577;28;20209;-50
2021/03/30 00:13:31;;;;;;;21.07;18.90;;;;;22.10;101954.00;;;;2069802;28;20230;-47
2021/03/30 00:14:31;;;;;;;20.23;17.73;;;;;22.00;101963.00;;;;2069851;28;20221;-46
2021/03/30 00:15:32;;;;;;;20.73;18.53;;;;;22.00;101962.00;;;;2070159;28;20233;-44
2021/03/30 00:16:32;;;;;;;21.20;19.07;;;;;22.00;101954.00;;;;2070777;28;20952;-45
2021/03/30 00:17:33;;;;;;;19.63;17.53;;;;;22.00;101956.00;;;;2070262;28;20214;-46
2021/03/30 00:18:33;;;;;;;19.90;17.80;;;;;22.00;101953.00;;;;2070217;28;20219;-45
2021/03/30 00:19:33;;;;;;;19.43;17.53;;;;;22.00;101955.00;;;;2069934;28;20226;-44
2021/03/30 00:20:34;;;;;;;18.77;16.87;;;;;22.00;101959.00;;;;2077471;28;20236;-44
2021/03/30 00:21:34;;;;;;;19.57;17.47;;;;;22.00;101951.00;;;;2078676;28;20218;-44
2021/03/30 00:22:34;;;;;;;18.33;16.30;;;;;22.00;101955.00;;;;2078383;28;20218;-44
2021/03/30 00:23:35;;;;;;;19.50;16.73;;;;;22.00;101961.00;;;;2078614;28;20934;-44
2021/03/30 00:24:35;;;;;;;19.90;16.60;;;;;22.00;101960.00;;;;2078574;28;20206;-44
2021/03/30 00:25:35;;;;;;;19.03;17.03;;;;;22.00;101962.00;;;;2079577;28;20304;-45
2021/03/30 00:26:36;;;;;;;17.93;16.00;;;;;22.00;101962.00;;;;2078665;28;20233;-45
2021/03/30 00:27:36;;;;;;;16.83;15.10;;;;;22.00;101952.00;;;;2078481;28;20217;-45
2021/03/30 00:28:37;;;;;;;17.63;15.83;;;;;22.00;101961.00;;;;2078218;28;20214;-44
2021/03/30 00:29:43;;;;;;;18.97;16.97;;;;;22.00;101962.00;;;;2078114;28;20638;-44
2021/03/30 00:30:43;;;;;;;17.83;15.57;;;;;22.00;101959.00;;;;2073656;28;20226;-44
2021/03/30 00:31:44;;;;;;;17.20;15.40;;;;;22.00;101969.00;;;;2069685;28;20234;-44
2021/03/30 00:32:44;;;;;;;16.67;14.87;;;;;22.00;101963.00;;;;2070112;28;20699;-43
2021/03/30 00:33:45;;;;;;;16.10;14.00;;;;;22.00;101961.00;;;;2074094;28;20220;-44
2021/03/30 00:34:45;;;;;;;16.40;14.13;;;;;22.00;101963.00;;;;2074474;28;20199;-45
2021/03/30 00:35:46;;;;;;;18.07;15.23;;;;;22.00;101959.00;;;;2070908;28;20219;-45
2021/03/30 00:36:46;;;;;;;16.77;15.00;;;;;22.00;101962.00;;;;2070557;28;20661;-45
2021/03/30 00:37:46;;;;;;;17.13;14.87;;;;;22.00;101961.00;;;;2072830;28;20203;-45
2021/03/30 00:38:47;;;;;;;15.23;13.73;;;;;22.00;101952.00;;;;2078302;28;20595;-45
2021/03/30 00:39:47;;;;;;;18.57;15.57;;;;;22.00;101961.00;;;;2077774;28;20313;-44
2021/03/30 00:40:47;;;;;;;15.30;13.73;;;;;22.00;101960.00;;;;2073885;28;20304;-42
2021/03/30 00:41:48;;;;;;;15.53;13.93;;;;;22.00;101962.00;;;;2069965;28;20207;-43
2021/03/30 00:42:48;;;;;;;15.23;13.63;;;;;22.00;101957.00;;;;2070344;28;20211;-43
2021/03/30 00:43:48;;;;;;;16.30;13.93;;;;;21.90;101953.00;;;;2070069;28;20206;-42
2021/03/30 00:44:49;;;;;;;14.67;13.17;;;;;22.00;101963.00;;;;2069491;28;20210;-42
2021/03/30 00:45:51;;;;;;;13.53;12.13;;;;;22.00;101957.00;;;;2069071;28;20222;-45
2021/03/30 00:46:51;;;;;;;14.40;12.88;;;;;22.00;101957.00;;;;2069995;28;20214;-45
2021/03/30 00:47:51;;;;;;;15.10;12.80;;;;;22.00;101959.00;;;;2069780;28;20684;-47
2021/03/30 00:48:52;;;;;;;14.13;12.63;;;;;21.90;101957.00;;;;2065151;28;20713;-44
2021/03/30 00:49:52;;;;;;;13.57;12.03;;;;;21.90;101961.00;;;;2077567;28;20220;-43
2021/03/30 00:50:53;;;;;;;16.30;14.13;;;;;21.90;101952.00;;;;2077421;28;20222;-44
2021/03/30 00:51:53;;;;;;;13.30;11.90;;;;;21.90;101956.00;;;;2076401;28;20228;-44
2021/03/30 00:52:54;;;;;;;16.00;13.30;;;;;21.90;101957.00;;;;2068687;28;20274;-43
2021/03/30 00:53:54;;;;;;;14.33;12.40;;;;;21.90;101965.00;;;;2077122;28;20316;-44
2021/03/30 00:54:54;;;;;;;13.60;12.20;;;;;21.90;101952.00;;;;2078221;28;20224;-43
2021/03/30 00:55:55;;;;;;;13.43;11.83;;;;;21.90;101952.00;;;;2077646;28;20879;-42
2021/03/30 00:56:55;;;;;;;12.73;11.53;;;;;21.90;101961.00;;;;2069635;28;21084;-46
2021/03/30 00:57:55;;;;;;;13.30;12.00;;;;;21.90;101956.00;;;;2074945;28;20211;-44
2021/03/30 00:58:56;;;;;;;14.60;12.47;;;;;21.90;101952.00;;;;2076476;28;20297;-44
2021/03/30 00:59:56;;;;;;;12.57;11.27;;;;;21.90;101960.00;;;;2077505;28;20652;-47
2021/03/30 01:00:57;;;;;;;13.73;12.33;;;;;21.90;101957.00;;;;2077979;28;20218;-43
2021/03/30 01:01:58;;;;;;;12.63;11.33;;;;;21.90;101952.00;;;;2076664;28;20241;-42
2021/03/30 01:02:58;;;;;;;11.70;10.60;;;;;21.90;101956.00;;;;2077239;28;20226;-43
2021/03/30 01:03:58;;;;;;;13.47;11.50;;;;;21.90;101965.00;;;;2076994;28;20449;-41
2021/03/30 01:04:59;;;;;;;12.60;11.30;;;;;21.90;101962.00;;;;2073709;28;20225;-43
2021/03/30 01:06:00;;;;;;;11.70;10.50;;;;;21.90;101964.00;;;;2070900;28;20203;-46
2021/03/30 01:07:00;;;;;;;12.80;11.00;;;;;21.90;101964.00;;;;2069911;28;20215;-42
2021/03/30 01:08:19;;;;;;;11.80;10.60;;;;;21.90;101959.00;;;;2073130;28;20211;-43
2021/03/30 01:09:41;;;;;;;12.65;11.35;;;;;21.90;101959.00;;;;2069790;28;20241;-44
2021/03/30 01:11:06;;;;;;;12.70;11.05;;;;;21.90;101958.00;;;;2069801;28;20214;-47
2021/03/30 01:12:31;;;;;;;11.90;10.55;;;;;21.90;101970.00;;;;2077842;28;20214;-43
2021/03/30 01:13:35;;;;;;;11.52;10.32;;;;;21.90;101963.00;;;;2077313;28;20248;-44
2021/03/30 01:14:49;;;;;;;12.35;10.55;;;;;21.90;101960.00;;;;2077772;28;20213;-45
2021/03/30 01:16:01;;;;;;;11.48;10.27;;;;;21.80;101953.00;;;;2077383;28;20275;-43
2021/03/30 01:17:17;;;;;;;11.35;10.15;;;;;21.80;101959.00;;;;2069360;28;20269;-42
2021/03/30 01:18:22;;;;;;;12.30;10.88;;;;;21.80;101960.00;;;;2069716;28;20646;-42
2021/03/30 01:20:07;;;;;;;12.25;9.88;;;;;21.80;101956.00;;;;2077652;28;20240;-46
2021/03/30 01:21:31;;;;;;;12.00;10.80;;;;;21.80;101963.00;;;;2077554;28;20698;-45
2021/03/30 01:22:51;;;;;;;10.48;9.38;;;;;21.80;101961.00;;;;2077501;28;20663;-42
2021/03/30 01:24:25;;;;;;;9.90;8.90;;;;;21.80;101967.00;;;;2071508;28;20361;-42
2021/03/30 01:25:26;;;;;;;10.27;9.02;;;;;21.80;101964.00;;;;2073230;28;20226;-46
2021/03/30 01:26:35;;;;;;;12.00;10.57;;;;;21.80;101967.00;;;;2069039;28;20268;-45
2021/03/30 01:27:50;;;;;;;10.30;8.90;;;;;21.80;101968.00;;;;2069250;28;20763;-42
2021/03/30 01:29:28;;;;;;;10.55;9.45;;;;;21.80;101965.00;;;;2071146;28;20223;-45
2021/03/30 01:30:29;;;;;;;9.88;8.40;;;;;21.80;101967.00;;;;2069680;28;20210;-45
2021/03/30 01:31:29;;;;;;;10.85;9.27;;;;;21.80;101963.00;;;;2069832;28;20226;-43
2021/03/30 01:32:52;;;;;;;10.43;9.27;;;;;21.80;101960.00;;;;2077130;28;20209;-42
2021/03/30 01:33:52;;;;;;;9.35;8.45;;;;;21.80;101964.00;;;;2071179;28;20210;-44
2021/03/30 01:34:53;;;;;;;8.80;7.90;;;;;21.80;101963.00;;;;2074434;28;20217;-47
2021/03/30 01:35:54;;;;;;;9.40;8.50;;;;;21.80;101958.00;;;;2068811;28;20215;-43
2021/03/30 01:36:55;;;;;;;9.30;8.40;;;;;21.80;101958.00;;;;2060927;28;20211;-43
2021/03/30 01:37:55;;;;;;;10.55;9.55;;;;;21.80;101961.00;;;;2060933;28;20478;-42
2021/03/30 01:38:56;;;;;;;9.73;8.07;;;;;21.80;101960.00;;;;2061261;28;20867;-42
2021/03/30 01:39:58;;;;;;;8.70;7.90;;;;;21.80;101964.00;;;;2061189;28;20732;-45
2021/03/30 01:40:58;;;;;;;9.52;8.63;;;;;21.80;101959.00;;;;2069029;28;20493;-42
2021/03/30 01:41:59;;;;;;;8.70;7.80;;;;;21.80;101960.00;;;;2060000;28;20207;-46
2021/03/30 01:43:00;;;;;;;9.57;8.67;;;;;21.80;101961.00;;;;2062844;28;20302;-44
2021/03/30 01:44:00;;;;;;;9.52;8.52;;;;;21.80;101957.00;;;;2050644;28;20221;-42
2021/03/30 01:45:01;;;;;;;8.53;7.63;;;;;21.80;101962.00;;;;2061076;28;20215;-45
2021/03/30 01:46:01;;;;;;;8.77;7.87;;;;;21.80;101965.00;;;;2068955;28;20324;-44
2021/03/30 01:47:01;;;;;;;8.03;7.23;;;;;21.80;101962.00;;;;2069062;28;20334;-42
2021/03/30 01:48:02;;;;;;;9.47;8.57;;;;;21.70;101969.00;;;;2077168;28;20256;-46
2021/03/30 01:49:03;;;;;;;9.30;8.33;;;;;21.70;101964.00;;;;2068835;28;20225;-44
2021/03/30 01:50:04;;;;;;;8.20;7.40;;;;;21.80;101954.00;;;;2068789;28;20418;-48
2021/03/30 01:51:05;;;;;;;8.02;7.32;;;;;21.80;101962.00;;;;2076893;28;20233;-46
2021/03/30 01:52:09;;;;;;;9.53;7.93;;;;;21.80;101962.00;;;;2077003;28;20216;-46
2021/03/30 01:53:09;;;;;;;8.55;7.70;;;;;21.70;101962.00;;;;2077010;28;20886;-44
2021/03/30 01:54:10;;;;;;;8.80;7.80;;;;;21.70;101954.00;;;;2068632;28;20226;-45
2021/03/30 01:55:15;;;;;;;8.95;8.07;;;;;21.70;101952.00;;;;2060707;28;20252;-46
2021/03/30 01:56:15;;;;;;;8.05;7.25;;;;;21.70;101958.00;;;;2053599;28;20223;-48
2021/03/30 01:57:25;;;;;;;9.10;8.20;;;;;21.70;101964.00;;;;2052782;28;20558;-46
2021/03/30 01:58:25;;;;;;;8.30;7.50;;;;;21.70;101962.00;;;;2054292;28;20721;-46
2021/03/30 01:59:26;;;;;;;8.67;7.77;;;;;21.70;101955.00;;;;2069467;28;20298;-44
2021/03/30 02:00:33;;;;;;;7.90;7.10;;;;;21.70;101977.00;;;;2068877;28;20214;-43
2021/03/30 02:01:35;;;;;;;8.02;6.80;;;;;21.70;101962.00;;;;2059811;28;20211;-46
2021/03/30 02:02:35;;;;;;;9.13;8.35;;;;;21.70;101959.00;;;;2068569;28;20209;-43
2021/03/30 02:03:35;;;;;;;7.70;6.90;;;;;21.70;101959.00;;;;2072285;28;20226;-45
2021/03/30 02:04:36;;;;;;;7.73;7.03;;;;;21.70;101953.00;;;;2069587;28;20218;-43
2021/03/30 02:05:36;;;;;;;7.53;6.83;;;;;21.70;101953.00;;;;2069494;28;20261;-42
2021/03/30 02:06:37;;;;;;;7.60;6.80;;;;;21.70;101950.00;;;;2060893;28;20226;-42
2021/03/30 02:07:37;;;;;;;7.23;6.50;;;;;21.70;101957.00;;;;2061728;28;20222;-41
2021/03/30 02:08:37;;;;;;;7.90;7.20;;;;;21.70;101956.00;;;;2069011;28;20635;-42
2021/03/30 02:09:42;;;;;;;7.50;6.73;;;;;21.70;101953.00;;;;2060820;28;20385;-44
2021/03/30 02:10:51;;;;;;;8.35;6.97;;;;;21.70;101958.00;;;;2063043;28;20223;-43
2021/03/30 02:11:56;;;;;;;8.00;6.90;;;;;21.70;101966.00;;;;2076423;28;20256;-43
2021/03/30 02:12:59;;;;;;;7.18;6.47;;;;;21.70;101959.00;;;;2069963;28;20222;-43
2021/03/30 02:13:59;;;;;;;7.22;6.63;;;;;21.70;101963.00;;;;2069630;28;20769;-42
2021/03/30 02:15:00;;;;;;;7.57;6.83;;;;;21.60;101963.00;;;;2069230;28;20244;-43
2021/03/30 02:16:08;;;;;;;7.33;6.57;;;;;21.70;101959.00;;;;2074471;28;20548;-42
2021/03/30 02:17:19;;;;;;;7.60;6.90;;;;;21.70;101964.00;;;;2068481;28;20226;-42
2021/03/30 02:18:20;;;;;;;7.78;6.85;;;;;21.70;101965.00;;;;2061907;28;20294;-44
2021/03/30 02:19:27;;;;;;;9.20;6.73;;;;;21.70;101960.00;;;;2068923;28;20545;-42
2021/03/30 02:20:34;;;;;;;7.15;6.10;;;;;21.70;101958.00;;;;2075267;28;20214;-47
2021/03/30 02:21:41;;;;;;;6.93;5.93;;;;;21.70;101950.00;;;;2078123;28;20210;-45
2021/03/30 02:22:52;;;;;;;6.80;6.15;;;;;21.70;101954.00;;;;2078233;28;20586;-46
2021/03/30 02:23:52;;;;;;;6.90;6.20;;;;;21.60;101954.00;;;;2078841;28;20644;-44
2021/03/30 02:24:53;;;;;;;6.53;5.90;;;;;21.60;101960.00;;;;2078920;28;20222;-45
2021/03/30 02:25:57;;;;;;;7.68;6.43;;;;;21.60;101952.00;;;;2067254;28;20265;-41
2021/03/30 02:26:58;;;;;;;8.57;6.22;;;;;21.60;101956.00;;;;2070462;28;20222;-42
2021/03/30 02:28:02;;;;;;;6.70;6.10;;;;;21.60;101953.00;;;;2062398;28;20222;-43
2021/03/30 02:29:05;;;;;;;7.70;6.63;;;;;21.60;101950.00;;;;2062889;28;20231;-43
2021/03/30 02:30:06;;;;;;;6.35;5.75;;;;;21.60;101954.00;;;;2070919;28;20711;-44
2021/03/30 02:31:07;;;;;;;6.47;5.88;;;;;21.60;101953.00;;;;2061403;28;20367;-46
2021/03/30 02:32:09;;;;;;;7.23;6.50;;;;;21.60;101959.00;;;;2066903;28;20287;-43
2021/03/30 02:33:13;;;;;;;6.10;5.50;;;;;21.60;101949.00;;;;2063448;28;20269;-42
2021/03/30 02:34:13;;;;;;;6.95;6.25;;;;;21.60;101947.00;;;;2062305;28;20219;-43
2021/03/30 02:35:14;;;;;;;6.07;5.47;;;;;21.60;101958.00;;;;2062311;28;20302;-42
2021/03/30 02:36:14;;;;;;;6.00;5.40;;;;;21.60;101948.00;;;;2062373;28;20222;-45
2021/03/30 02:37:16;;;;;;;6.67;6.07;;;;;21.60;101950.00;;;;2062552;28;20211;-44
2021/03/30 02:38:16;;;;;;;6.60;6.00;;;;;21.60;101947.00;;;;2078313;28;20221;-42
2021/03/30 02:39:17;;;;;;;6.20;5.60;;;;;21.60;101945.00;;;;2078433;28;20210;-46
2021/03/30 02:40:19;;;;;;;6.83;6.13;;;;;21.60;101948.00;;;;2062190;28;20700;-42
2021/03/30 02:41:19;;;;;;;6.35;5.75;;;;;21.60;101949.00;;;;2069443;28;20211;-43
2021/03/30 02:42:20;;;;;;;7.70;5.87;;;;;21.60;101860.00;;;;2070294;28;20214;-44
2021/03/30 02:43:20;;;;;;;6.27;5.67;;;;;21.60;101935.00;;;;2070261;28;20293;-42
2021/03/30 02:44:20;;;;;;;6.47;5.83;;;;;21.60;101954.00;;;;2078275;28;20218;-42
2021/03/30 02:45:23;;;;;;;6.47;5.67;;;;;21.60;101945.00;;;;2070300;28;20227;-45
2021/03/30 02:46:23;;;;;;;6.30;5.70;;;;;21.60;101947.00;;;;2069707;28;20249;-43
2021/03/30 02:47:24;;;;;;;6.47;5.63;;;;;21.60;101948.00;;;;2060808;28;21074;-43
2021/03/30 02:48:24;;;;;;;6.33;5.80;;;;;21.60;101948.00;;;;2062357;28;20215;-44
2021/03/30 02:49:24;;;;;;;6.03;5.43;;;;;21.60;101961.00;;;;2078526;28;20217;-42
2021/03/30 02:50:25;;;;;;;6.10;5.50;;;;;21.60;101948.00;;;;2069985;28;20214;-47
2021/03/30 02:51:25;;;;;;;6.10;5.57;;;;;21.60;101940.00;;;;2069316;28;20219;-43
2021/03/30 02:52:26;;;;;;;6.00;5.40;;;;;21.60;101945.00;;;;2070001;28;20305;-43
2021/03/30 02:53:26;;;;;;;6.60;5.90;;;;;21.60;101947.00;;;;2062128;28;20207;-43
2021/03/30 02:54:27;;;;;;;5.80;5.07;;;;;21.60;101953.00;;;;2078261;28;20229;-44
2021/03/30 02:55:27;;;;;;;6.27;5.67;;;;;21.60;101951.00;;;;2079876;28;20210;-44
2021/03/30 02:56:27;;;;;;;6.87;6.17;;;;;21.60;101942.00;;;;2078060;28;20233;-44
2021/03/30 02:57:28;;;;;;;5.27;4.73;;;;;21.60;101955.00;;;;2078162;28;20711;-44
2021/03/30 02:58:28;;;;;;;6.10;5.50;;;;;21.60;101941.00;;;;2078105;28;20249;-44
2021/03/30 02:59:28;;;;;;;5.93;5.33;;;;;21.50;101942.00;;;;2070405;28;20244;-45
2021/03/30 03:00:29;;;;;;;5.60;5.10;;;;;21.60;101934.00;;;;2070278;28;20269;-44
2021/03/30 03:01:30;;;;;;;5.93;5.43;;;;;21.60;101943.00;;;;2069144;28;20214;-44
2021/03/30 03:02:30;;;;;;;5.88;5.35;;;;;21.60;101943.00;;;;2072514;28;20225;-42
2021/03/30 03:03:32;;;;;;;5.80;5.00;;;;;21.60;101945.00;;;;2063054;28;20223;-47
2021/03/30 03:04:32;;;;;;;6.55;5.07;;;;;21.60;101938.00;;;;2048591;28;20212;-44
2021/03/30 03:05:32;;;;;;;5.87;5.23;;;;;21.50;101941.00;;;;2054178;28;20330;-43
2021/03/30 03:06:33;;;;;;;5.30;4.73;;;;;21.50;101939.00;;;;2069986;28;20234;-46
2021/03/30 03:07:34;;;;;;;5.70;5.10;;;;;21.50;101940.00;;;;2062137;28;20302;-48
2021/03/30 03:08:34;;;;;;;5.88;5.30;;;;;21.50;101944.00;;;;2048281;28;20629;-45
2021/03/30 03:09:35;;;;;;;5.27;4.77;;;;;21.50;101949.00;;;;2058461;28;20242;-44
2021/03/30 03:10:36;;;;;;;5.65;4.90;;;;;21.50;101947.00;;;;2061903;28;20345;-45
2021/03/30 03:11:43;;;;;;;5.73;5.23;;;;;21.50;101946.00;;;;2077470;28;20651;-44
2021/03/30 03:12:43;;;;;;;5.80;5.20;;;;;21.50;101955.00;;;;2075022;28;20372;-44
2021/03/30 03:13:45;;;;;;;5.50;4.93;;;;;21.50;101951.00;;;;2062263;28;20254;-44
2021/03/30 03:14:46;;;;;;;5.50;4.93;;;;;21.50;101943.00;;;;2063488;28;20223;-44
2021/03/30 03:15:46;;;;;;;5.30;4.80;;;;;21.50;101949.00;;;;2070045;28;20257;-44
2021/03/30 03:16:46;;;;;;;5.50;5.00;;;;;21.50;101954.00;;;;2069725;28;20242;-44
2021/03/30 03:17:47;;;;;;;5.70;5.10;;;;;21.50;101946.00;;;;2068944;28;20230;-45
2021/03/30 03:18:47;;;;;;;5.43;4.93;;;;;21.50;101950.00;;;;2061736;28;20223;-45
2021/03/30 03:19:48;;;;;;;5.53;4.93;;;;;21.50;101947.00;;;;2061793;28;20258;-45
2021/03/30 03:20:48;;;;;;;5.40;4.90;;;;;21.50;101949.00;;;;2067710;28;20302;-44
2021/03/30 03:21:49;;;;;;;5.40;4.80;;;;;21.50;101942.00;;;;2055302;28;20274;-44
2021/03/30 03:22:50;;;;;;;5.10;4.60;;;;;21.50;101931.00;;;;2056318;28;20535;-44
2021/03/30 03:23:50;;;;;;;5.70;5.07;;;;;21.50;101949.00;;;;2070105;28;20299;-45
2021/03/30 03:24:51;;;;;;;5.00;4.60;;;;;21.50;101950.00;;;;2061077;28;20621;-44
2021/03/30 03:25:51;;;;;;;5.27;4.77;;;;;21.50;101944.00;;;;2069601;28;20226;-46
2021/03/30 03:26:51;;;;;;;5.37;4.60;;;;;21.50;101947.00;;;;2077687;28;20295;-45
2021/03/30 03:27:52;;;;;;;5.37;4.80;;;;;21.50;101952.00;;;;2071453;28;20732;-44
2021/03/30 03:28:52;;;;;;;5.83;5.23;;;;;21.50;101949.00;;;;2069474;28;20414;-44
2021/03/30 03:29:53;;;;;;;5.33;4.80;;;;;21.50;101948.00;;;;2061123;28;20239;-44
2021/03/30 03:30:53;;;;;;;5.57;5.00;;;;;21.50;101954.00;;;;2060948;28;20215;-45
2021/03/30 03:31:53;;;;;;;5.07;4.57;;;;;21.50;101943.00;;;;2068327;28;20215;-44
2021/03/30 03:33:06;;;;;;;5.50;4.97;;;;;21.50;101949.00;;;;2073290;28;20687;-45
2021/03/30 03:34:07;;;;;;;5.30;4.75;;;;;21.50;101955.00;;;;2072965;28;20277;-45
2021/03/30 03:35:10;;;;;;;5.07;4.60;;;;;21.50;101950.00;;;;2069897;28;20337;-44
2021/03/30 03:36:12;;;;;;;5.10;4.60;;;;;21.50;101944.00;;;;2075239;28;20300;-46
2021/03/30 03:37:12;;;;;;;4.65;4.20;;;;;21.50;101954.00;;;;2078759;28;20695;-46
2021/03/30 03:38:13;;;;;;;5.20;4.70;;;;;21.50;101953.00;;;;2072922;28;20215;-47
2021/03/30 03:39:15;;;;;;;4.77;4.37;;;;;21.50;101956.00;;;;2070541;28;20341;-44
2021/03/30 03:40:15;;;;;;;4.90;4.50;;;;;21.40;101942.00;;;;2070532;28;20225;-44
2021/03/30 03:41:16;;;;;;;4.83;4.27;;;;;21.50;101947.00;;;;2069036;28;20219;-43
2021/03/30 03:42:16;;;;;;;4.60;4.00;;;;;21.40;101950.00;;;;2078649;28;20220;-45
2021/03/30 03:43:17;;;;;;;4.47;4.07;;;;;21.40;101942.00;;;;2078910;28;20213;-43
2021/03/30 03:44:17;;;;;;;4.83;4.20;;;;;21.40;101949.00;;;;2078441;28;20214;-43
2021/03/30 03:45:17;;;;;;;4.50;4.10;;;;;21.40;101938.00;;;;2078319;28;20703;-44
2021/03/30 03:46:18;;;;;;;5.00;4.40;;;;;21.40;101940.00;;;;2078397;28;20259;-44
2021/03/30 03:47:22;;;;;;;6.03;5.10;;;;;21.40;101947.00;;;;2077818;28;20210;-43
2021/03/30 03:48:22;;;;;;;5.22;4.40;;;;;21.40;101942.00;;;;2074587;28;20249;-44
2021/03/30 03:49:24;;;;;;;4.83;4.43;;;;;21.40;101945.00;;;;2069720;28;20226;-44
2021/03/30 03:50:25;;;;;;;5.03;4.53;;;;;21.40;101937.00;;;;2070268;28;20226;-43
2021/03/30 03:51:28;;;;;;;5.33;4.67;;;;;21.40;101938.00;;;;2068227;28;20218;-44
2021/03/30 03:52:30;;;;;;;4.75;4.30;;;;;21.40;101937.00;;;;2061374;28;20846;-44
2021/03/30 03:53:30;;;;;;;5.10;4.70;;;;;21.40;101945.00;;;;2061127;28;20235;-44
2021/03/30 03:54:31;;;;;;;5.47;4.97;;;;;21.40;101942.00;;;;2054177;28;20217;-44
2021/03/30 03:55:31;;;;;;;4.67;4.27;;;;;21.40;101939.00;;;;2069411;28;20253;-44
2021/03/30 03:57:01;;;;;;;5.00;4.50;;;;;21.40;101946.00;;;;2068261;28;20230;-46
2021/03/30 03:58:03;;;;;;;4.93;4.10;;;;;21.40;101954.00;;;;2072906;28;20758;-45
2021/03/30 03:59:08;;;;;;;4.13;3.75;;;;;21.40;101947.00;;;;2065351;28;20214;-45
2021/03/30 04:00:08;;;;;;;4.65;4.20;;;;;21.40;101928.00;;;;2067133;28;20207;-44
2021/03/30 04:01:10;;;;;;;4.47;4.07;;;;;21.40;101943.00;;;;2067779;28;20211;-45
2021/03/30 04:02:22;;;;;;;4.30;3.90;;;;;21.40;101942.00;;;;2061217;28;20622;-45
2021/03/30 04:03:27;;;;;;;4.78;4.28;;;;;21.40;101942.00;;;;2064877;28;20211;-43
2021/03/30 04:04:33;;;;;;;4.63;4.22;;;;;21.40;101942.00;;;;2059437;28;20219;-44
2021/03/30 04:06:07;;;;;;;4.22;3.83;;;;;21.40;101944.00;;;;2062208;28;20226;-51
2021/03/30 04:07:07;;;;;;;4.35;3.85;;;;;21.40;101940.00;;;;2063984;28;20211;-43
2021/03/30 04:08:11;;;;;;;4.67;4.27;;;;;21.40;101941.00;;;;2074227;28;20203;-44
2021/03/30 04:09:11;;;;;;;5.22;4.35;;;;;21.40;101939.00;;;;2070040;28;20214;-46
2021/03/30 04:10:12;;;;;;;4.50;4.10;;;;;21.40;101942.00;;;;2066457;28;20673;-43
2021/03/30 04:11:12;;;;;;;4.37;3.97;;;;;21.40;101949.00;;;;2061191;28;20454;-43
2021/03/30 04:12:13;;;;;;;5.13;4.63;;;;;21.40;101944.00;;;;2069914;28;20207;-44
2021/03/30 04:13:16;;;;;;;4.43;4.07;;;;;21.40;101951.00;;;;2072683;28;20245;-46
2021/03/30 04:14:17;;;;;;;4.95;3.70;;;;;21.40;101949.00;;;;2069527;28;20277;-43
2021/03/30 04:15:21;;;;;;;4.60;4.20;;;;;21.40;101950.00;;;;2061763;28;20211;-44
2021/03/30 04:16:22;;;;;;;4.43;4.03;;;;;21.40;101952.00;;;;2062112;28;21004;-45
2021/03/30 04:17:22;;;;;;;4.27;3.87;;;;;21.40;101964.00;;;;2069308;28;20218;-44
2021/03/30 04:18:22;;;;;;;5.20;3.83;;;;;21.40;101958.00;;;;2069789;28;20219;-44
2021/03/30 04:19:23;;;;;;;4.03;3.73;;;;;21.40;101956.00;;;;2070053;28;20644;-45
2021/03/30 04:20:24;;;;;;;4.17;3.87;;;;;21.40;101956.00;;;;2072706;28;20210;-45
2021/03/30 04:21:32;;;;;;;4.10;3.80;;;;;21.30;101957.00;;;;2060691;28;20231;-45
2021/03/30 04:22:33;;;;;;;4.70;4.25;;;;;21.30;101958.00;;;;2063769;28;20223;-44
2021/03/30 04:23:41;;;;;;;4.77;4.27;;;;;21.40;101962.00;;;;2077594;28;20221;-44
2021/03/30 04:24:41;;;;;;;4.43;3.63;;;;;21.30;101955.00;;;;2077661;28;20901;-44
2021/03/30 04:25:44;;;;;;;4.30;3.87;;;;;21.30;101957.00;;;;2078493;28;20229;-45
2021/03/30 04:26:44;;;;;;;6.43;4.13;;;;;21.20;101953.00;;;;2078722;28;20210;-44
2021/03/30 04:27:45;;;;;;;4.53;4.10;;;;;21.20;101944.00;;;;2078666;28;20216;-44
2021/03/30 04:28:45;;;;;;;4.90;4.10;;;;;21.20;101953.00;;;;2078453;28;20203;-44
2021/03/30 04:29:45;;;;;;;5.10;4.60;;;;;21.20;101952.00;;;;2078376;28;20980;-45
2021/03/30 04:30:46;;;;;;;5.90;4.80;;;;;21.30;101948.00;;;;2078432;28;20214;-45
2021/03/30 04:31:46;;;;;;;4.33;3.90;;;;;21.30;101946.00;;;;2076136;28;20210;-45
2021/03/30 04:32:47;;;;;;;4.87;4.40;;;;;21.40;101951.00;;;;2072372;28;20201;-44
2021/03/30 04:33:47;;;;;;;4.50;3.80;;;;;21.40;101949.00;;;;2071922;28;20256;-45
2021/03/30 04:34:47;;;;;;;5.20;3.70;;;;;21.40;101953.00;;;;2069912;28;20217;-44
2021/03/30 04:35:48;;;;;;;5.10;3.20;;;;;21.40;101952.00;;;;2070250;28;20206;-44
2021/03/30 04:36:48;;;;;;;4.33;3.93;;;;;21.40;101949.00;;;;2070423;28;20233;-44
2021/03/30 04:37:48;;;;;;;3.67;3.37;;;;;21.40;101947.00;;;;2069955;28;20707;-44
2021/03/30 04:38:49;;;;;;;4.83;3.90;;;;;21.40;101953.00;;;;2070133;28;20219;-45
2021/03/30 04:39:49;;;;;;;3.90;3.30;;;;;21.40;101951.00;;;;2070068;28;20261;-45
2021/03/30 04:40:53;;;;;;;4.50;3.70;;;;;21.40;101954.00;;;;2070156;28;20276;-44
2021/03/30 04:41:53;;;;;;;4.40;3.88;;;;;21.40;101952.00;;;;2068981;28;20961;-44
2021/03/30 04:42:53;;;;;;;4.73;4.13;;;;;21.40;101953.00;;;;2069735;28;20206;-45
2021/03/30 04:43:54;;;;;;;6.00;4.23;;;;;21.40;101952.00;;;;2070409;28;20348;-44
2021/03/30 04:44:54;;;;;;;4.03;3.73;;;;;21.40;101954.00;;;;2070736;28;20296;-45
2021/03/30 04:45:55;;;;;;;4.20;3.80;;;;;21.40;101957.00;;;;2078041;28;20279;-45
2021/03/30 04:46:55;;;;;;;4.53;4.10;;;;;21.40;101947.00;;;;2077755;28;20560;-45
2021/03/30 04:47:56;;;;;;;5.13;4.40;;;;;21.30;101963.00;;;;2071212;28;20327;-44
2021/03/30 04:48:56;;;;;;;4.17;3.77;;;;;21.30;101963.00;;;;2069243;28;20210;-44
2021/03/30 04:49:56;;;;;;;4.80;4.23;;;;;21.30;101961.00;;;;2069546;28;20731;-44
2021/03/30 04:50:57;;;;;;;4.57;4.17;;;;;21.30;101959.00;;;;2069092;28;20646;-45
2021/03/30 04:51:57;;;;;;;4.83;4.23;;;;;21.30;101964.00;;;;2068314;28;20217;-44
2021/03/30 04:52:57;;;;;;;4.77;4.03;;;;;21.30;101968.00;;;;2068813;28;20873;-44
2021/03/30 04:53:58;;;;;;;4.20;3.80;;;;;21.30;101962.00;;;;2069806;28;20631;-44
2021/03/30 04:54:58;;;;;;;4.47;4.07;;;;;21.30;101962.00;;;;2069197;28;20218;-45
2021/03/30 04:55:59;;;;;;;4.87;4.03;;;;;21.30;101958.00;;;;2070044;28;20218;-44
2021/03/30 04:56:59;;;;;;;5.00;4.60;;;;;21.30;101962.00;;;;2069985;28;20246;-45
2021/03/30 04:57:59;;;;;;;6.30;4.47;;;;;21.30;101967.00;;;;2074236;28;20214;-45
2021/03/30 04:59:00;;;;;;;4.93;4.53;;;;;21.30;101961.00;;;;2077745;28;20484;-44
2021/03/30 05:00:01;;;;;;;5.67;4.20;;;;;21.30;101967.00;;;;2077829;28;20248;-45
2021/03/30 05:01:02;;;;;;;5.55;3.75;;;;;21.20;101969.00;;;;2077899;28;20217;-44
2021/03/30 05:02:03;;;;;;;4.15;3.75;;;;;21.20;101970.00;;;;2071964;28;20222;-44
2021/03/30 05:03:03;;;;;;;6.60;4.20;;;;;21.20;101968.00;;;;2070828;28;20292;-44
2021/03/30 05:04:04;;;;;;;4.53;4.00;;;;;21.20;101975.00;;;;2064991;28;20221;-45
2021/03/30 05:05:05;;;;;;;4.60;3.87;;;;;21.20;101975.00;;;;2064221;28;20218;-45
2021/03/30 05:06:05;;;;;;;4.27;3.60;;;;;21.20;101973.00;;;;2068153;28;20695;-44
2021/03/30 05:07:05;;;;;;;4.53;4.13;;;;;21.20;101922.00;;;;2068792;28;20460;-44